sensor_id;sensor_type;location;lat;lon;timestamp;temperature;humidity
4107;DHT22;21906;50.812;7.132;2022-12-24T00:01:24;12.60;68.30
4107;DHT22;21906;50.812;7.132;2022-12-24T00:03:50;12.60;67.80
4107;DHT22;21906;50.812;7.132;2022-12-24T00:06:21;12.50;67.60
4107;DHT22;21906;50.812;7.132;2022-12-24T00:08:48;12.40;67.80
4107;DHT22;21906;50.812;7.132;2022-12-24T00:11:15;12.40;67.40
4107;DHT22;21906;50.812;7.132;2022-12-24T00:13:41;12.40;67.30
4107;DHT22;21906;50.812;7.132;2022-12-24T00:16:06;12.40;67.60
4107;DHT22;21906;50.812;7.132;2022-12-24T00:18:32;12.40;67.50
4107;DHT22;21906;50.812;7.132;2022-12-24T00:20:58;12.40;67.40
4107;DHT22;21906;50.812;7.132;2022-12-24T00:23:23;12.40;67.40
4107;DHT22;21906;50.812;7.132;2022-12-24T00:25:49;12.40;67.50
4107;DHT22;21906;50.812;7.132;2022-12-24T00:28:15;12.30;67.60
4107;DHT22;21906;50.812;7.132;2022-12-24T00:30:41;12.30;67.90
4107;DHT22;21906;50.812;7.132;2022-12-24T00:33:08;12.30;67.80
4107;DHT22;21906;50.812;7.132;2022-12-24T00:35:35;12.30;68.00
4107;DHT22;21906;50.812;7.132;2022-12-24T00:38:01;12.30;67.80
4107;DHT22;21906;50.812;7.132;2022-12-24T00:40:28;12.40;67.80
4107;DHT22;21906;50.812;7.132;2022-12-24T00:42:54;12.30;68.10
4107;DHT22;21906;50.812;7.132;2022-12-24T00:45:20;12.20;68.60
4107;DHT22;21906;50.812;7.132;2022-12-24T00:47:46;12.20;68.60
4107;DHT22;21906;50.812;7.132;2022-12-24T00:50:12;12.20;68.70
4107;DHT22;21906;50.812;7.132;2022-12-24T00:52:37;12.10;69.00
4107;DHT22;21906;50.812;7.132;2022-12-24T00:55:03;12.20;69.00
4107;DHT22;21906;50.812;7.132;2022-12-24T00:57:29;12.20;69.00
4107;DHT22;21906;50.812;7.132;2022-12-24T00:59:55;12.20;69.40
4107;DHT22;21906;50.812;7.132;2022-12-24T01:02:20;12.20;69.40
4107;DHT22;21906;50.812;7.132;2022-12-24T01:04:46;12.30;69.20
4107;DHT22;21906;50.812;7.132;2022-12-24T01:07:30;12.30;69.30
4107;DHT22;21906;50.812;7.132;2022-12-24T01:09:56;12.20;69.30
4107;DHT22;21906;50.812;7.132;2022-12-24T01:12:22;12.20;69.40
4107;DHT22;21906;50.812;7.132;2022-12-24T01:14:48;12.20;69.60
4107;DHT22;21906;50.812;7.132;2022-12-24T01:17:13;12.20;69.50
4107;DHT22;21906;50.812;7.132;2022-12-24T01:19:39;12.30;69.50
4107;DHT22;21906;50.812;7.132;2022-12-24T01:22:05;12.20;69.50
4107;DHT22;21906;50.812;7.132;2022-12-24T01:24:30;12.20;69.60
4107;DHT22;21906;50.812;7.132;2022-12-24T01:26:56;12.20;70.00
4107;DHT22;21906;50.812;7.132;2022-12-24T01:29:21;12.10;70.30
4107;DHT22;21906;50.812;7.132;2022-12-24T01:31:47;12.10;70.40
4107;DHT22;21906;50.812;7.132;2022-12-24T01:34:13;12.10;70.50
4107;DHT22;21906;50.812;7.132;2022-12-24T01:36:38;12.20;70.50
4107;DHT22;21906;50.812;7.132;2022-12-24T01:39:04;12.20;70.40
4107;DHT22;21906;50.812;7.132;2022-12-24T01:41:31;12.30;70.40
4107;DHT22;21906;50.812;7.132;2022-12-24T01:44:27;12.30;70.60
4107;DHT22;21906;50.812;7.132;2022-12-24T01:47:24;12.30;70.70
4107;DHT22;21906;50.812;7.132;2022-12-24T01:49:55;12.20;70.80
4107;DHT22;21906;50.812;7.132;2022-12-24T01:52:25;12.30;70.80
4107;DHT22;21906;50.812;7.132;2022-12-24T01:54:59;12.30;70.70
4107;DHT22;21906;50.812;7.132;2022-12-24T01:57:49;12.30;70.90
4107;DHT22;21906;50.812;7.132;2022-12-24T02:00:16;12.40;70.90
4107;DHT22;21906;50.812;7.132;2022-12-24T02:02:46;12.20;71.40
4107;DHT22;21906;50.812;7.132;2022-12-24T02:05:16;12.40;71.00
4107;DHT22;21906;50.812;7.132;2022-12-24T02:07:43;12.40;70.70
4107;DHT22;21906;50.812;7.132;2022-12-24T02:10:12;12.30;71.10
4107;DHT22;21906;50.812;7.132;2022-12-24T02:12:39;12.20;71.20
4107;DHT22;21906;50.812;7.132;2022-12-24T02:15:08;12.10;71.60
4107;DHT22;21906;50.812;7.132;2022-12-24T02:23:22;12.10;71.70
4107;DHT22;21906;50.812;7.132;2022-12-24T02:31:35;12.10;71.70
4107;DHT22;21906;50.812;7.132;2022-12-24T02:37:03;12.00;71.90
4107;DHT22;21906;50.812;7.132;2022-12-24T02:39:51;12.00;72.00
4107;DHT22;21906;50.812;7.132;2022-12-24T02:42:22;11.90;72.00
4107;DHT22;21906;50.812;7.132;2022-12-24T02:44:58;11.90;72.50
4107;DHT22;21906;50.812;7.132;2022-12-24T02:47:27;11.90;72.30
4107;DHT22;21906;50.812;7.132;2022-12-24T02:49:53;12.00;72.00
4107;DHT22;21906;50.812;7.132;2022-12-24T02:52:35;12.00;72.00
4107;DHT22;21906;50.812;7.132;2022-12-24T02:55:04;12.00;72.20
4107;DHT22;21906;50.812;7.132;2022-12-24T03:03:45;11.90;72.50
4107;DHT22;21906;50.812;7.132;2022-12-24T03:06:15;11.90;72.60
4107;DHT22;21906;50.812;7.132;2022-12-24T03:08:57;11.90;72.60
4107;DHT22;21906;50.812;7.132;2022-12-24T03:11:24;11.90;72.80
4107;DHT22;21906;50.812;7.132;2022-12-24T03:13:52;11.90;72.70
4107;DHT22;21906;50.812;7.132;2022-12-24T03:16:22;12.00;72.60
4107;DHT22;21906;50.812;7.132;2022-12-24T03:18:50;12.00;72.50
4107;DHT22;21906;50.812;7.132;2022-12-24T03:21:24;11.90;72.90
4107;DHT22;21906;50.812;7.132;2022-12-24T03:23:52;11.90;72.90
4107;DHT22;21906;50.812;7.132;2022-12-24T03:26:18;11.90;73.00
4107;DHT22;21906;50.812;7.132;2022-12-24T03:28:45;11.90;73.10
4107;DHT22;21906;50.812;7.132;2022-12-24T03:31:11;12.00;73.50
4107;DHT22;21906;50.812;7.132;2022-12-24T03:33:38;11.90;73.50
4107;DHT22;21906;50.812;7.132;2022-12-24T03:36:05;11.90;74.30
4107;DHT22;21906;50.812;7.132;2022-12-24T03:38:31;11.90;74.90
4107;DHT22;21906;50.812;7.132;2022-12-24T03:40:57;11.80;75.30
4107;DHT22;21906;50.812;7.132;2022-12-24T03:43:22;11.90;75.50
4107;DHT22;21906;50.812;7.132;2022-12-24T03:45:48;11.90;75.60
4107;DHT22;21906;50.812;7.132;2022-12-24T03:48:14;11.90;75.70
4107;DHT22;21906;50.812;7.132;2022-12-24T03:50:39;11.80;76.30
4107;DHT22;21906;50.812;7.132;2022-12-24T03:53:05;11.70;76.90
4107;DHT22;21906;50.812;7.132;2022-12-24T03:55:31;11.70;77.20
4107;DHT22;21906;50.812;7.132;2022-12-24T03:57:56;11.70;77.40
4107;DHT22;21906;50.812;7.132;2022-12-24T04:00:22;11.60;78.10
4107;DHT22;21906;50.812;7.132;2022-12-24T04:02:48;11.70;78.70
4107;DHT22;21906;50.812;7.132;2022-12-24T04:05:15;11.60;78.80
4107;DHT22;21906;50.812;7.132;2022-12-24T04:07:42;11.60;79.20
4107;DHT22;21906;50.812;7.132;2022-12-24T04:10:08;11.60;79.20
4107;DHT22;21906;50.812;7.132;2022-12-24T04:12:35;11.70;79.60
4107;DHT22;21906;50.812;7.132;2022-12-24T04:15:00;11.60;80.10
4107;DHT22;21906;50.812;7.132;2022-12-24T04:17:26;11.50;80.30
4107;DHT22;21906;50.812;7.132;2022-12-24T04:19:52;11.50;80.20
4107;DHT22;21906;50.812;7.132;2022-12-24T04:22:17;11.50;80.70
4107;DHT22;21906;50.812;7.132;2022-12-24T04:24:43;11.40;80.80
4107;DHT22;21906;50.812;7.132;2022-12-24T04:27:09;11.40;81.40
4107;DHT22;21906;50.812;7.132;2022-12-24T04:29:34;11.30;81.50
4107;DHT22;21906;50.812;7.132;2022-12-24T04:32:00;11.30;81.50
4107;DHT22;21906;50.812;7.132;2022-12-24T04:34:26;11.30;81.60
4107;DHT22;21906;50.812;7.132;2022-12-24T04:36:52;11.20;81.60
4107;DHT22;21906;50.812;7.132;2022-12-24T04:39:18;11.20;81.30
4107;DHT22;21906;50.812;7.132;2022-12-24T04:41:43;11.20;81.50
4107;DHT22;21906;50.812;7.132;2022-12-24T04:44:09;11.20;81.70
4107;DHT22;21906;50.812;7.132;2022-12-24T04:46:35;11.10;82.10
4107;DHT22;21906;50.812;7.132;2022-12-24T04:49:01;11.10;81.80
4107;DHT22;21906;50.812;7.132;2022-12-24T04:51:27;11.10;81.70
4107;DHT22;21906;50.812;7.132;2022-12-24T04:53:53;11.20;81.50
4107;DHT22;21906;50.812;7.132;2022-12-24T04:56:22;11.10;81.40
4107;DHT22;21906;50.812;7.132;2022-12-24T04:58:49;11.00;81.60
4107;DHT22;21906;50.812;7.132;2022-12-24T05:01:18;11.00;81.40
4107;DHT22;21906;50.812;7.132;2022-12-24T05:03:44;11.10;81.20
4107;DHT22;21906;50.812;7.132;2022-12-24T05:06:12;11.20;80.90
4107;DHT22;21906;50.812;7.132;2022-12-24T05:08:38;11.10;80.70
4107;DHT22;21906;50.812;7.132;2022-12-24T05:11:05;11.10;80.30
4107;DHT22;21906;50.812;7.132;2022-12-24T05:13:31;11.10;80.50
4107;DHT22;21906;50.812;7.132;2022-12-24T05:15:57;11.10;80.60
4107;DHT22;21906;50.812;7.132;2022-12-24T05:18:23;11.00;80.50
4107;DHT22;21906;50.812;7.132;2022-12-24T05:20:49;11.10;80.80
4107;DHT22;21906;50.812;7.132;2022-12-24T05:23:23;11.10;80.70
4107;DHT22;21906;50.812;7.132;2022-12-24T05:26:26;11.10;80.70
4107;DHT22;21906;50.812;7.132;2022-12-24T05:28:55;11.00;80.90
4107;DHT22;21906;50.812;7.132;2022-12-24T05:31:22;11.00;80.90
4107;DHT22;21906;50.812;7.132;2022-12-24T05:33:48;11.00;80.80
4107;DHT22;21906;50.812;7.132;2022-12-24T05:36:14;11.00;80.90
4107;DHT22;21906;50.812;7.132;2022-12-24T05:38:40;11.00;81.10
4107;DHT22;21906;50.812;7.132;2022-12-24T05:41:09;11.00;81.10
4107;DHT22;21906;50.812;7.132;2022-12-24T05:43:36;11.00;81.10
4107;DHT22;21906;50.812;7.132;2022-12-24T05:46:05;11.00;81.10
4107;DHT22;21906;50.812;7.132;2022-12-24T05:48:31;11.00;81.10
4107;DHT22;21906;50.812;7.132;2022-12-24T05:50:57;11.00;81.10
4107;DHT22;21906;50.812;7.132;2022-12-24T05:53:23;11.00;80.90
4107;DHT22;21906;50.812;7.132;2022-12-24T05:55:48;11.00;80.80
4107;DHT22;21906;50.812;7.132;2022-12-24T05:58:14;10.90;80.50
4107;DHT22;21906;50.812;7.132;2022-12-24T06:00:40;10.90;80.70
4107;DHT22;21906;50.812;7.132;2022-12-24T06:03:06;10.90;80.90
4107;DHT22;21906;50.812;7.132;2022-12-24T06:05:31;10.90;80.90
4107;DHT22;21906;50.812;7.132;2022-12-24T06:07:57;10.90;81.00
4107;DHT22;21906;50.812;7.132;2022-12-24T06:10:23;10.90;80.90
4107;DHT22;21906;50.812;7.132;2022-12-24T06:12:48;10.90;81.00
4107;DHT22;21906;50.812;7.132;2022-12-24T06:15:14;10.80;81.00
4107;DHT22;21906;50.812;7.132;2022-12-24T06:17:40;10.80;81.10
4107;DHT22;21906;50.812;7.132;2022-12-24T06:20:06;10.70;80.90
4107;DHT22;21906;50.812;7.132;2022-12-24T06:22:32;10.70;80.80
4107;DHT22;21906;50.812;7.132;2022-12-24T06:24:58;10.70;80.90
4107;DHT22;21906;50.812;7.132;2022-12-24T06:27:23;10.70;81.00
4107;DHT22;21906;50.812;7.132;2022-12-24T06:29:49;10.70;81.20
4107;DHT22;21906;50.812;7.132;2022-12-24T06:32:15;10.70;81.30
4107;DHT22;21906;50.812;7.132;2022-12-24T06:34:40;10.80;81.40
4107;DHT22;21906;50.812;7.132;2022-12-24T06:37:06;10.80;81.20
4107;DHT22;21906;50.812;7.132;2022-12-24T06:39:32;10.70;81.20
4107;DHT22;21906;50.812;7.132;2022-12-24T06:41:57;10.80;81.20
4107;DHT22;21906;50.812;7.132;2022-12-24T06:44:23;10.90;81.20
4107;DHT22;21906;50.812;7.132;2022-12-24T06:46:48;10.90;81.40
4107;DHT22;21906;50.812;7.132;2022-12-24T06:49:14;10.90;81.20
4107;DHT22;21906;50.812;7.132;2022-12-24T06:51:40;11.00;80.90
4107;DHT22;21906;50.812;7.132;2022-12-24T06:54:06;11.10;80.90
4107;DHT22;21906;50.812;7.132;2022-12-24T06:56:31;11.10;80.80
4107;DHT22;21906;50.812;7.132;2022-12-24T06:58:57;11.20;80.70
4107;DHT22;21906;50.812;7.132;2022-12-24T07:01:22;11.20;80.70
4107;DHT22;21906;50.812;7.132;2022-12-24T07:03:48;11.20;80.70
4107;DHT22;21906;50.812;7.132;2022-12-24T07:06:25;11.20;80.60
4107;DHT22;21906;50.812;7.132;2022-12-24T07:08:52;11.20;80.60
4107;DHT22;21906;50.812;7.132;2022-12-24T07:11:19;11.10;80.70
4107;DHT22;21906;50.812;7.132;2022-12-24T07:13:45;11.20;80.70
4107;DHT22;21906;50.812;7.132;2022-12-24T07:16:11;11.10;80.80
4107;DHT22;21906;50.812;7.132;2022-12-24T07:18:37;11.10;80.90
4107;DHT22;21906;50.812;7.132;2022-12-24T07:21:04;11.00;80.90
4107;DHT22;21906;50.812;7.132;2022-12-24T07:23:30;11.00;80.80
4107;DHT22;21906;50.812;7.132;2022-12-24T07:25:59;11.10;80.70
4107;DHT22;21906;50.812;7.132;2022-12-24T07:28:26;11.10;80.60
4107;DHT22;21906;50.812;7.132;2022-12-24T07:30:51;11.00;80.50
4107;DHT22;21906;50.812;7.132;2022-12-24T07:33:17;11.00;80.40
4107;DHT22;21906;50.812;7.132;2022-12-24T07:35:42;11.00;80.60
4107;DHT22;21906;50.812;7.132;2022-12-24T07:38:08;11.00;80.50
4107;DHT22;21906;50.812;7.132;2022-12-24T07:40:34;11.10;80.20
4107;DHT22;21906;50.812;7.132;2022-12-24T07:42:59;11.20;80.10
4107;DHT22;21906;50.812;7.132;2022-12-24T07:45:25;11.20;80.00
4107;DHT22;21906;50.812;7.132;2022-12-24T07:47:51;11.20;79.70
4107;DHT22;21906;50.812;7.132;2022-12-24T07:50:17;11.30;79.40
4107;DHT22;21906;50.812;7.132;2022-12-24T07:52:42;11.30;79.30
4107;DHT22;21906;50.812;7.132;2022-12-24T07:55:08;11.30;79.10
4107;DHT22;21906;50.812;7.132;2022-12-24T07:57:34;11.30;79.20
4107;DHT22;21906;50.812;7.132;2022-12-24T07:59:59;11.40;79.10
4107;DHT22;21906;50.812;7.132;2022-12-24T08:02:25;11.30;79.20
4107;DHT22;21906;50.812;7.132;2022-12-24T08:04:51;11.30;79.10
4107;DHT22;21906;50.812;7.132;2022-12-24T08:07:16;11.30;79.20
4107;DHT22;21906;50.812;7.132;2022-12-24T08:09:42;11.30;79.00
4107;DHT22;21906;50.812;7.132;2022-12-24T08:12:10;11.30;78.90
4107;DHT22;21906;50.812;7.132;2022-12-24T08:14:36;11.30;78.80
4107;DHT22;21906;50.812;7.132;2022-12-24T08:17:02;11.20;78.80
4107;DHT22;21906;50.812;7.132;2022-12-24T08:19:27;11.30;78.80
4107;DHT22;21906;50.812;7.132;2022-12-24T08:21:53;11.30;78.90
4107;DHT22;21906;50.812;7.132;2022-12-24T08:24:19;11.40;78.20
4107;DHT22;21906;50.812;7.132;2022-12-24T08:26:45;11.40;78.20
4107;DHT22;21906;50.812;7.132;2022-12-24T08:29:10;11.50;78.00
4107;DHT22;21906;50.812;7.132;2022-12-24T08:31:36;11.50;77.80
4107;DHT22;21906;50.812;7.132;2022-12-24T08:34:06;11.50;77.50
4107;DHT22;21906;50.812;7.132;2022-12-24T08:36:35;11.60;77.50
4107;DHT22;21906;50.812;7.132;2022-12-24T08:39:00;11.60;77.20
4107;DHT22;21906;50.812;7.132;2022-12-24T08:41:32;11.60;77.30
4107;DHT22;21906;50.812;7.132;2022-12-24T08:43:57;11.70;77.30
4107;DHT22;21906;50.812;7.132;2022-12-24T08:46:23;11.80;77.00
4107;DHT22;21906;50.812;7.132;2022-12-24T08:48:49;11.90;77.10
4107;DHT22;21906;50.812;7.132;2022-12-24T08:51:14;11.90;77.00
4107;DHT22;21906;50.812;7.132;2022-12-24T08:53:40;12.00;76.70
4107;DHT22;21906;50.812;7.132;2022-12-24T08:56:12;12.10;76.60
4107;DHT22;21906;50.812;7.132;2022-12-24T08:58:38;12.20;76.00
4107;DHT22;21906;50.812;7.132;2022-12-24T09:01:15;12.20;76.20
4107;DHT22;21906;50.812;7.132;2022-12-24T09:03:41;12.20;76.50
4107;DHT22;21906;50.812;7.132;2022-12-24T09:06:08;12.10;76.80
4107;DHT22;21906;50.812;7.132;2022-12-24T09:08:39;12.20;76.50
4107;DHT22;21906;50.812;7.132;2022-12-24T09:11:14;12.10;76.60
4107;DHT22;21906;50.812;7.132;2022-12-24T09:13:41;12.20;76.80
4107;DHT22;21906;50.812;7.132;2022-12-24T09:16:11;12.20;77.00
4107;DHT22;21906;50.812;7.132;2022-12-24T09:18:39;12.30;76.80
4107;DHT22;21906;50.812;7.132;2022-12-24T09:21:07;12.40;76.00
4107;DHT22;21906;50.812;7.132;2022-12-24T09:23:37;12.40;75.90
4107;DHT22;21906;50.812;7.132;2022-12-24T09:26:11;12.40;75.70
4107;DHT22;21906;50.812;7.132;2022-12-24T09:28:41;12.40;75.60
4107;DHT22;21906;50.812;7.132;2022-12-24T09:31:08;12.40;75.70
4107;DHT22;21906;50.812;7.132;2022-12-24T09:33:36;12.50;75.50
4107;DHT22;21906;50.812;7.132;2022-12-24T09:36:03;12.50;75.20
4107;DHT22;21906;50.812;7.132;2022-12-24T09:38:30;12.50;74.80
4107;DHT22;21906;50.812;7.132;2022-12-24T09:40:57;12.40;74.60
4107;DHT22;21906;50.812;7.132;2022-12-24T09:43:26;12.50;74.50
4107;DHT22;21906;50.812;7.132;2022-12-24T09:46:10;12.50;74.40
4107;DHT22;21906;50.812;7.132;2022-12-24T09:48:42;12.50;74.40
4107;DHT22;21906;50.812;7.132;2022-12-24T09:51:28;12.50;74.20
4107;DHT22;21906;50.812;7.132;2022-12-24T09:56:42;12.50;73.90
4107;DHT22;21906;50.812;7.132;2022-12-24T09:59:42;12.40;74.30
4107;DHT22;21906;50.812;7.132;2022-12-24T10:02:14;12.50;74.80
4107;DHT22;21906;50.812;7.132;2022-12-24T10:04:42;12.60;74.10
4107;DHT22;21906;50.812;7.132;2022-12-24T10:10:37;12.60;74.30
4107;DHT22;21906;50.812;7.132;2022-12-24T10:14:01;12.60;74.10
4107;DHT22;21906;50.812;7.132;2022-12-24T10:24:44;12.70;73.50
4107;DHT22;21906;50.812;7.132;2022-12-24T10:27:14;12.70;72.90
4107;DHT22;21906;50.812;7.132;2022-12-24T10:29:44;12.70;73.10
4107;DHT22;21906;50.812;7.132;2022-12-24T10:32:30;12.70;72.80
4107;DHT22;21906;50.812;7.132;2022-12-24T10:37:46;12.80;72.70
4107;DHT22;21906;50.812;7.132;2022-12-24T10:40:35;12.90;72.50
4107;DHT22;21906;50.812;7.132;2022-12-24T10:43:16;12.90;72.40
4107;DHT22;21906;50.812;7.132;2022-12-24T10:45:48;12.80;73.00
4107;DHT22;21906;50.812;7.132;2022-12-24T10:48:45;12.70;73.10
4107;DHT22;21906;50.812;7.132;2022-12-24T10:54:07;12.80;72.70
4107;DHT22;21906;50.812;7.132;2022-12-24T10:56:44;12.80;73.00
4107;DHT22;21906;50.812;7.132;2022-12-24T10:59:41;12.90;72.50
4107;DHT22;21906;50.812;7.132;2022-12-24T11:02:33;12.90;72.40
4107;DHT22;21906;50.812;7.132;2022-12-24T11:05:02;12.90;72.40
4107;DHT22;21906;50.812;7.132;2022-12-24T11:07:30;12.90;72.40
4107;DHT22;21906;50.812;7.132;2022-12-24T11:10:00;12.90;72.50
4107;DHT22;21906;50.812;7.132;2022-12-24T11:12:30;12.90;72.40
4107;DHT22;21906;50.812;7.132;2022-12-24T11:15:05;12.90;72.60
4107;DHT22;21906;50.812;7.132;2022-12-24T11:17:32;12.90;72.60
4107;DHT22;21906;50.812;7.132;2022-12-24T11:19:58;13.00;71.90
4107;DHT22;21906;50.812;7.132;2022-12-24T11:22:29;13.10;71.60
4107;DHT22;21906;50.812;7.132;2022-12-24T11:25:04;13.20;71.50
4107;DHT22;21906;50.812;7.132;2022-12-24T11:27:38;13.10;71.80
4107;DHT22;21906;50.812;7.132;2022-12-24T11:32:43;13.30;70.70
4107;DHT22;21906;50.812;7.132;2022-12-24T11:35:23;13.30;70.90
4107;DHT22;21906;50.812;7.132;2022-12-24T11:40:32;13.20;71.00
4107;DHT22;21906;50.812;7.132;2022-12-24T11:43:00;13.30;70.70
4107;DHT22;21906;50.812;7.132;2022-12-24T11:45:28;13.40;70.80
4107;DHT22;21906;50.812;7.132;2022-12-24T11:47:54;13.30;70.90
4107;DHT22;21906;50.812;7.132;2022-12-24T11:52:51;13.30;70.80
4107;DHT22;21906;50.812;7.132;2022-12-24T12:00:48;13.40;70.20
4107;DHT22;21906;50.812;7.132;2022-12-24T12:03:41;13.50;70.20
4107;DHT22;21906;50.812;7.132;2022-12-24T12:09:03;13.40;70.60
4107;DHT22;21906;50.812;7.132;2022-12-24T12:11:31;13.40;70.90
4107;DHT22;21906;50.812;7.132;2022-12-24T12:14:00;13.40;71.10
4107;DHT22;21906;50.812;7.132;2022-12-24T12:16:54;13.40;70.70
4107;DHT22;21906;50.812;7.132;2022-12-24T12:19:31;13.50;70.70
4107;DHT22;21906;50.812;7.132;2022-12-24T12:21:59;13.60;70.70
4107;DHT22;21906;50.812;7.132;2022-12-24T12:24:35;13.60;70.40
4107;DHT22;21906;50.812;7.132;2022-12-24T12:27:38;13.70;70.20
4107;DHT22;21906;50.812;7.132;2022-12-24T12:30:15;13.70;70.10
4107;DHT22;21906;50.812;7.132;2022-12-24T12:33:02;13.70;69.80
4107;DHT22;21906;50.812;7.132;2022-12-24T12:35:35;13.70;69.80
4107;DHT22;21906;50.812;7.132;2022-12-24T12:38:22;13.90;69.60
4107;DHT22;21906;50.812;7.132;2022-12-24T12:47:15;14.40;69.00
4107;DHT22;21906;50.812;7.132;2022-12-24T12:58:13;14.60;67.60
4107;DHT22;21906;50.812;7.132;2022-12-24T13:00:41;14.60;67.80
4107;DHT22;21906;50.812;7.132;2022-12-24T13:12:18;14.20;67.60
4107;DHT22;21906;50.812;7.132;2022-12-24T13:15:22;14.20;67.90
4107;DHT22;21906;50.812;7.132;2022-12-24T13:23:07;14.40;67.60
4107;DHT22;21906;50.812;7.132;2022-12-24T13:25:38;14.70;67.40
4107;DHT22;21906;50.812;7.132;2022-12-24T13:36:06;14.90;64.40
4107;DHT22;21906;50.812;7.132;2022-12-24T13:46:49;14.90;64.70
4107;DHT22;21906;50.812;7.132;2022-12-24T13:49:25;14.90;64.40
4107;DHT22;21906;50.812;7.132;2022-12-24T13:54:58;14.90;64.60
4107;DHT22;21906;50.812;7.132;2022-12-24T14:09:04;14.90;64.20
4107;DHT22;21906;50.812;7.132;2022-12-24T14:16:04;14.90;64.80
4107;DHT22;21906;50.812;7.132;2022-12-24T14:18:36;14.90;64.60
4107;DHT22;21906;50.812;7.132;2022-12-24T14:21:04;14.80;65.10
4107;DHT22;21906;50.812;7.132;2022-12-24T14:26:03;14.90;65.20
4107;DHT22;21906;50.812;7.132;2022-12-24T14:28:42;14.90;64.70
4107;DHT22;21906;50.812;7.132;2022-12-24T14:31:14;14.90;64.60
4107;DHT22;21906;50.812;7.132;2022-12-24T14:33:41;14.80;64.90
4107;DHT22;21906;50.812;7.132;2022-12-24T14:36:08;14.80;65.20
4107;DHT22;21906;50.812;7.132;2022-12-24T14:38:34;14.70;65.50
4107;DHT22;21906;50.812;7.132;2022-12-24T14:41:18;14.70;65.70
4107;DHT22;21906;50.812;7.132;2022-12-24T14:44:08;14.70;65.90
4107;DHT22;21906;50.812;7.132;2022-12-24T14:46:56;14.60;65.80
4107;DHT22;21906;50.812;7.132;2022-12-24T14:54:42;14.50;66.10
4107;DHT22;21906;50.812;7.132;2022-12-24T14:59:59;14.30;65.70
4107;DHT22;21906;50.812;7.132;2022-12-24T15:02:49;14.10;65.70
4107;DHT22;21906;50.812;7.132;2022-12-24T15:05:16;13.90;66.20
4107;DHT22;21906;50.812;7.132;2022-12-24T15:07:56;13.90;66.80
4107;DHT22;21906;50.812;7.132;2022-12-24T15:10:29;13.80;67.10
4107;DHT22;21906;50.812;7.132;2022-12-24T15:13:00;13.70;67.30
4107;DHT22;21906;50.812;7.132;2022-12-24T15:15:26;13.70;67.60
4107;DHT22;21906;50.812;7.132;2022-12-24T15:17:53;13.60;67.90
4107;DHT22;21906;50.812;7.132;2022-12-24T15:20:23;13.60;68.20
4107;DHT22;21906;50.812;7.132;2022-12-24T15:22:52;13.60;68.10
4107;DHT22;21906;50.812;7.132;2022-12-24T15:25:28;13.60;68.40
4107;DHT22;21906;50.812;7.132;2022-12-24T15:27:54;13.50;68.60
4107;DHT22;21906;50.812;7.132;2022-12-24T15:30:23;13.50;68.50
4107;DHT22;21906;50.812;7.132;2022-12-24T15:32:52;13.50;68.60
4107;DHT22;21906;50.812;7.132;2022-12-24T15:35:43;13.50;68.50
4107;DHT22;21906;50.812;7.132;2022-12-24T15:40:54;13.40;69.00
4107;DHT22;21906;50.812;7.132;2022-12-24T15:43:21;13.40;69.20
4107;DHT22;21906;50.812;7.132;2022-12-24T15:45:47;13.40;69.40
4107;DHT22;21906;50.812;7.132;2022-12-24T15:48:17;13.40;69.40
4107;DHT22;21906;50.812;7.132;2022-12-24T15:50:53;13.30;69.30
4107;DHT22;21906;50.812;7.132;2022-12-24T15:53:29;13.30;69.70
4107;DHT22;21906;50.812;7.132;2022-12-24T15:56:08;13.30;70.00
4107;DHT22;21906;50.812;7.132;2022-12-24T16:03:34;13.10;70.30
4107;DHT22;21906;50.812;7.132;2022-12-24T16:06:05;13.10;70.50
4107;DHT22;21906;50.812;7.132;2022-12-24T16:08:43;13.00;71.00
4107;DHT22;21906;50.812;7.132;2022-12-24T16:13:40;12.80;71.50
4107;DHT22;21906;50.812;7.132;2022-12-24T16:16:19;12.70;71.50
4107;DHT22;21906;50.812;7.132;2022-12-24T16:21:19;12.60;71.80
4107;DHT22;21906;50.812;7.132;2022-12-24T16:23:50;12.50;71.60
4107;DHT22;21906;50.812;7.132;2022-12-24T16:26:17;12.40;71.90
4107;DHT22;21906;50.812;7.132;2022-12-24T16:28:42;12.40;72.10
4107;DHT22;21906;50.812;7.132;2022-12-24T16:31:18;12.20;72.20
4107;DHT22;21906;50.812;7.132;2022-12-24T16:33:47;12.10;72.20
4107;DHT22;21906;50.812;7.132;2022-12-24T16:36:15;12.00;72.50
4107;DHT22;21906;50.812;7.132;2022-12-24T16:38:41;11.90;72.80
4107;DHT22;21906;50.812;7.132;2022-12-24T16:41:25;11.80;73.20
4107;DHT22;21906;50.812;7.132;2022-12-24T16:43:51;11.80;73.40
4107;DHT22;21906;50.812;7.132;2022-12-24T16:46:17;11.70;73.70
4107;DHT22;21906;50.812;7.132;2022-12-24T16:48:47;11.70;74.10
4107;DHT22;21906;50.812;7.132;2022-12-24T16:51:13;11.70;74.20
4107;DHT22;21906;50.812;7.132;2022-12-24T16:53:38;11.70;74.50
4107;DHT22;21906;50.812;7.132;2022-12-24T16:56:05;11.70;74.80
4107;DHT22;21906;50.812;7.132;2022-12-24T16:58:31;11.70;75.00
4107;DHT22;21906;50.812;7.132;2022-12-24T17:00:57;11.70;75.10
4107;DHT22;21906;50.812;7.132;2022-12-24T17:03:24;11.80;75.20
4107;DHT22;21906;50.812;7.132;2022-12-24T17:05:49;11.80;75.20
4107;DHT22;21906;50.812;7.132;2022-12-24T17:08:15;11.80;75.30
4107;DHT22;21906;50.812;7.132;2022-12-24T17:10:49;11.90;75.30
4107;DHT22;21906;50.812;7.132;2022-12-24T17:13:15;11.90;75.30
4107;DHT22;21906;50.812;7.132;2022-12-24T17:15:41;11.90;75.20
4107;DHT22;21906;50.812;7.132;2022-12-24T17:18:07;11.80;75.30
4107;DHT22;21906;50.812;7.132;2022-12-24T17:20:32;11.80;75.40
4107;DHT22;21906;50.812;7.132;2022-12-24T17:22:58;11.80;75.40
4107;DHT22;21906;50.812;7.132;2022-12-24T17:25:24;11.90;75.40
4107;DHT22;21906;50.812;7.132;2022-12-24T17:27:50;11.90;75.30
4107;DHT22;21906;50.812;7.132;2022-12-24T17:30:16;11.90;75.20
4107;DHT22;21906;50.812;7.132;2022-12-24T17:32:41;11.90;75.00
4107;DHT22;21906;50.812;7.132;2022-12-24T17:35:08;11.80;75.00
4107;DHT22;21906;50.812;7.132;2022-12-24T17:37:33;11.80;75.10
4107;DHT22;21906;50.812;7.132;2022-12-24T17:39:59;11.70;75.10
4107;DHT22;21906;50.812;7.132;2022-12-24T17:42:25;11.70;75.20
4107;DHT22;21906;50.812;7.132;2022-12-24T17:44:51;11.60;75.20
4107;DHT22;21906;50.812;7.132;2022-12-24T17:47:16;11.50;75.60
4107;DHT22;21906;50.812;7.132;2022-12-24T17:49:42;11.40;75.80
4107;DHT22;21906;50.812;7.132;2022-12-24T17:52:07;11.40;75.90
4107;DHT22;21906;50.812;7.132;2022-12-24T17:54:33;11.40;75.90
4107;DHT22;21906;50.812;7.132;2022-12-24T17:56:59;11.40;76.00
4107;DHT22;21906;50.812;7.132;2022-12-24T17:59:25;11.40;76.20
4107;DHT22;21906;50.812;7.132;2022-12-24T18:01:50;11.40;76.30
4107;DHT22;21906;50.812;7.132;2022-12-24T18:04:16;11.40;76.20
4107;DHT22;21906;50.812;7.132;2022-12-24T18:06:42;11.40;76.20
4107;DHT22;21906;50.812;7.132;2022-12-24T18:09:07;11.30;76.30
4107;DHT22;21906;50.812;7.132;2022-12-24T18:11:35;11.30;76.40
4107;DHT22;21906;50.812;7.132;2022-12-24T18:14:02;11.30;76.50
4107;DHT22;21906;50.812;7.132;2022-12-24T18:16:34;11.20;76.50
4107;DHT22;21906;50.812;7.132;2022-12-24T18:19:01;11.20;76.70
4107;DHT22;21906;50.812;7.132;2022-12-24T18:21:29;11.20;76.70
4107;DHT22;21906;50.812;7.132;2022-12-24T18:23:55;11.20;76.90